sensor_id;sensor_type;location;lat;lon;timestamp;temperature;humidity
1175;DHT22;576;48.418;10.074;2023-05-02T00:02:15;23.30;59.80
1175;DHT22;576;48.418;10.074;2023-05-02T00:04:43;23.30;59.80
1175;DHT22;576;48.418;10.074;2023-05-02T00:07:11;23.30;59.80
1175;DHT22;576;48.418;10.074;2023-05-02T00:09:39;23.30;59.80
1175;DHT22;576;48.418;10.074;2023-05-02T00:12:08;23.30;59.80
1175;DHT22;576;48.418;10.074;2023-05-02T00:14:36;23.30;59.90
1175;DHT22;576;48.418;10.074;2023-05-02T00:17:05;23.30;59.90
1175;DHT22;576;48.418;10.074;2023-05-02T00:19:37;23.30;59.90
1175;DHT22;576;48.418;10.074;2023-05-02T00:22:05;23.30;59.90
1175;DHT22;576;48.418;10.074;2023-05-02T00:24:34;23.30;59.90
1175;DHT22;576;48.418;10.074;2023-05-02T00:27:02;23.30;59.90
1175;DHT22;576;48.418;10.074;2023-05-02T00:29:30;23.30;59.90
1175;DHT22;576;48.418;10.074;2023-05-02T00:31:59;23.20;59.90
1175;DHT22;576;48.418;10.074;2023-05-02T00:34:29;23.20;59.90
1175;DHT22;576;48.418;10.074;2023-05-02T00:36:58;23.20;59.90
1175;DHT22;576;48.418;10.074;2023-05-02T00:39:26;23.20;59.90
1175;DHT22;576;48.418;10.074;2023-05-02T00:41:58;23.20;60.00
1175;DHT22;576;48.418;10.074;2023-05-02T00:44:26;23.20;60.00
1175;DHT22;576;48.418;10.074;2023-05-02T00:46:54;23.20;60.00
1175;DHT22;576;48.418;10.074;2023-05-02T00:49:23;23.20;60.00
1175;DHT22;576;48.418;10.074;2023-05-02T00:51:53;23.20;60.00
1175;DHT22;576;48.418;10.074;2023-05-02T00:54:21;23.20;60.00
1175;DHT22;576;48.418;10.074;2023-05-02T00:56:49;23.20;60.00
1175;DHT22;576;48.418;10.074;2023-05-02T00:59:18;23.20;60.00
1175;DHT22;576;48.418;10.074;2023-05-02T01:01:54;23.20;60.00
1175;DHT22;576;48.418;10.074;2023-05-02T01:04:33;23.20;60.00
1175;DHT22;576;48.418;10.074;2023-05-02T01:07:18;23.20;60.00
1175;DHT22;576;48.418;10.074;2023-05-02T01:09:56;23.20;60.00
1175;DHT22;576;48.418;10.074;2023-05-02T01:12:34;23.10;60.00
1175;DHT22;576;48.418;10.074;2023-05-02T01:15:08;23.10;60.00
1175;DHT22;576;48.418;10.074;2023-05-02T01:17:39;23.10;60.00
1175;DHT22;576;48.418;10.074;2023-05-02T01:20:12;23.10;60.00
1175;DHT22;576;48.418;10.074;2023-05-02T01:22:43;23.10;60.10
1175;DHT22;576;48.418;10.074;2023-05-02T01:25:21;23.10;60.10
1175;DHT22;576;48.418;10.074;2023-05-02T01:28:00;23.10;60.10
1175;DHT22;576;48.418;10.074;2023-05-02T01:30:32;23.10;60.10
1175;DHT22;576;48.418;10.074;2023-05-02T01:33:02;23.10;60.10
1175;DHT22;576;48.418;10.074;2023-05-02T01:35:32;23.10;60.10
1175;DHT22;576;48.418;10.074;2023-05-02T01:38:01;23.10;60.10
1175;DHT22;576;48.418;10.074;2023-05-02T01:40:33;23.10;60.10
1175;DHT22;576;48.418;10.074;2023-05-02T01:43:02;23.10;60.10
1175;DHT22;576;48.418;10.074;2023-05-02T01:45:34;23.10;60.10
1175;DHT22;576;48.418;10.074;2023-05-02T01:48:05;23.10;60.10
1175;DHT22;576;48.418;10.074;2023-05-02T01:50:35;23.10;60.10
1175;DHT22;576;48.418;10.074;2023-05-02T01:53:06;23.10;60.10
1175;DHT22;576;48.418;10.074;2023-05-02T01:55:35;23.10;60.10
1175;DHT22;576;48.418;10.074;2023-05-02T01:58:05;23.10;60.10
1175;DHT22;576;48.418;10.074;2023-05-02T02:00:36;23.00;60.10
1175;DHT22;576;48.418;10.074;2023-05-02T02:03:05;23.10;60.10
1175;DHT22;576;48.418;10.074;2023-05-02T02:05:35;23.00;60.10
1175;DHT22;576;48.418;10.074;2023-05-02T02:08:04;23.00;60.10
1175;DHT22;576;48.418;10.074;2023-05-02T02:10:37;23.00;60.10
1175;DHT22;576;48.418;10.074;2023-05-02T02:13:17;23.00;60.10
1175;DHT22;576;48.418;10.074;2023-05-02T02:15:49;23.00;60.20
1175;DHT22;576;48.418;10.074;2023-05-02T02:18:20;23.00;60.10
1175;DHT22;576;48.418;10.074;2023-05-02T02:20:49;23.00;60.20
1175;DHT22;576;48.418;10.074;2023-05-02T02:23:22;23.00;60.10
1175;DHT22;576;48.418;10.074;2023-05-02T02:25:56;23.00;60.20
1175;DHT22;576;48.418;10.074;2023-05-02T02:28:24;23.00;60.20
1175;DHT22;576;48.418;10.074;2023-05-02T02:30:55;23.00;60.20
1175;DHT22;576;48.418;10.074;2023-05-02T02:33:26;23.00;60.20
1175;DHT22;576;48.418;10.074;2023-05-02T02:36:05;23.00;60.20
1175;DHT22;576;48.418;10.074;2023-05-02T02:38:40;23.00;60.20
1175;DHT22;576;48.418;10.074;2023-05-02T02:41:13;23.00;60.20
1175;DHT22;576;48.418;10.074;2023-05-02T02:43:49;23.00;60.20
1175;DHT22;576;48.418;10.074;2023-05-02T02:46:28;22.90;60.20
1175;DHT22;576;48.418;10.074;2023-05-02T02:49:09;23.00;60.20
1175;DHT22;576;48.418;10.074;2023-05-02T02:51:45;22.90;60.20
1175;DHT22;576;48.418;10.074;2023-05-02T02:54:20;22.90;60.20
1175;DHT22;576;48.418;10.074;2023-05-02T02:56:59;22.90;60.20
1175;DHT22;576;48.418;10.074;2023-05-02T02:59:32;22.90;60.20
1175;DHT22;576;48.418;10.074;2023-05-02T03:02:04;22.90;60.20
1175;DHT22;576;48.418;10.074;2023-05-02T03:04:36;22.90;60.20
1175;DHT22;576;48.418;10.074;2023-05-02T03:07:05;22.90;60.20
1175;DHT22;576;48.418;10.074;2023-05-02T03:09:42;22.90;60.20
1175;DHT22;576;48.418;10.074;2023-05-02T03:12:16;22.90;60.30
1175;DHT22;576;48.418;10.074;2023-05-02T03:14:44;22.90;60.20
1175;DHT22;576;48.418;10.074;2023-05-02T03:17:14;22.90;60.30
1175;DHT22;576;48.418;10.074;2023-05-02T03:19:42;22.90;60.30
1175;DHT22;576;48.418;10.074;2023-05-02T03:22:11;22.90;60.30
1175;DHT22;576;48.418;10.074;2023-05-02T03:24:39;22.90;60.30
1175;DHT22;576;48.418;10.074;2023-05-02T03:27:09;22.90;60.30
1175;DHT22;576;48.418;10.074;2023-05-02T03:29:40;22.90;60.30
1175;DHT22;576;48.418;10.074;2023-05-02T03:32:10;22.90;60.30
1175;DHT22;576;48.418;10.074;2023-05-02T03:34:42;22.90;60.30
1175;DHT22;576;48.418;10.074;2023-05-02T03:37:11;22.90;60.30
1175;DHT22;576;48.418;10.074;2023-05-02T03:39:39;22.90;60.30
1175;DHT22;576;48.418;10.074;2023-05-02T03:42:07;22.90;60.30
1175;DHT22;576;48.418;10.074;2023-05-02T03:44:35;22.90;60.30
1175;DHT22;576;48.418;10.074;2023-05-02T03:47:03;22.90;60.30
1175;DHT22;576;48.418;10.074;2023-05-02T03:49:38;22.90;60.30
1175;DHT22;576;48.418;10.074;2023-05-02T03:52:09;22.90;60.30
1175;DHT22;576;48.418;10.074;2023-05-02T03:54:38;22.90;60.40
1175;DHT22;576;48.418;10.074;2023-05-02T03:57:06;22.90;60.40
1175;DHT22;576;48.418;10.074;2023-05-02T03:59:34;22.90;60.40
1175;DHT22;576;48.418;10.074;2023-05-02T04:02:15;22.90;60.40
1175;DHT22;576;48.418;10.074;2023-05-02T04:04:46;23.00;60.40
1175;DHT22;576;48.418;10.074;2023-05-02T04:07:19;23.00;60.40
1175;DHT22;576;48.418;10.074;2023-05-02T04:09:55;23.10;60.30
1175;DHT22;576;48.418;10.074;2023-05-02T04:12:23;23.10;60.20
1175;DHT22;576;48.418;10.074;2023-05-02T04:14:53;23.20;60.10
1175;DHT22;576;48.418;10.074;2023-05-02T04:17:25;23.20;60.10
1175;DHT22;576;48.418;10.074;2023-05-02T04:19:53;23.30;60.00
1175;DHT22;576;48.418;10.074;2023-05-02T04:22:26;23.30;59.80
1175;DHT22;576;48.418;10.074;2023-05-02T04:24:58;23.30;59.70
1175;DHT22;576;48.418;10.074;2023-05-02T04:27:28;23.30;59.70
1175;DHT22;576;48.418;10.074;2023-05-02T04:29:57;23.40;59.60
1175;DHT22;576;48.418;10.074;2023-05-02T04:32:26;23.40;59.60
1175;DHT22;576;48.418;10.074;2023-05-02T04:34:56;23.40;59.60
1175;DHT22;576;48.418;10.074;2023-05-02T04:37:26;23.30;59.60
1175;DHT22;576;48.418;10.074;2023-05-02T04:39:54;23.30;59.60
1175;DHT22;576;48.418;10.074;2023-05-02T04:42:25;23.30;59.60
1175;DHT22;576;48.418;10.074;2023-05-02T04:45:10;23.30;59.60
1175;DHT22;576;48.418;10.074;2023-05-02T04:47:41;23.30;59.70
1175;DHT22;576;48.418;10.074;2023-05-02T04:50:10;23.30;59.80
1175;DHT22;576;48.418;10.074;2023-05-02T04:52:39;23.20;59.80
1175;DHT22;576;48.418;10.074;2023-05-02T04:55:08;23.20;59.80
1175;DHT22;576;48.418;10.074;2023-05-02T04:57:36;23.20;59.80
1175;DHT22;576;48.418;10.074;2023-05-02T05:00:08;23.20;59.80
1175;DHT22;576;48.418;10.074;2023-05-02T05:02:36;23.20;59.90
1175;DHT22;576;48.418;10.074;2023-05-02T05:05:05;23.20;59.90
1175;DHT22;576;48.418;10.074;2023-05-02T05:07:33;23.20;59.90
1175;DHT22;576;48.418;10.074;2023-05-02T05:10:07;23.20;59.90
1175;DHT22;576;48.418;10.074;2023-05-02T05:12:43;23.10;59.90
1175;DHT22;576;48.418;10.074;2023-05-02T05:15:13;23.10;60.00
1175;DHT22;576;48.418;10.074;2023-05-02T05:17:45;23.10;60.00
1175;DHT22;576;48.418;10.074;2023-05-02T05:20:13;23.10;60.00
1175;DHT22;576;48.418;10.074;2023-05-02T05:22:41;23.10;60.00
1175;DHT22;576;48.418;10.074;2023-05-02T05:25:13;23.10;60.00
1175;DHT22;576;48.418;10.074;2023-05-02T05:27:43;23.10;60.00
1175;DHT22;576;48.418;10.074;2023-05-02T05:30:11;23.10;60.00
1175;DHT22;576;48.418;10.074;2023-05-02T05:32:42;23.10;60.00
1175;DHT22;576;48.418;10.074;2023-05-02T05:35:10;23.10;60.00
1175;DHT22;576;48.418;10.074;2023-05-02T05:37:39;23.10;60.00
1175;DHT22;576;48.418;10.074;2023-05-02T05:40:10;23.10;60.00
1175;DHT22;576;48.418;10.074;2023-05-02T05:42:43;23.10;60.00
1175;DHT22;576;48.418;10.074;2023-05-02T05:45:18;23.10;60.00
1175;DHT22;576;48.418;10.074;2023-05-02T05:47:46;23.10;60.00
1175;DHT22;576;48.418;10.074;2023-05-02T05:50:14;23.10;60.00
1175;DHT22;576;48.418;10.074;2023-05-02T05:52:44;23.10;60.00
1175;DHT22;576;48.418;10.074;2023-05-02T05:59:14;23.10;60.00
1175;DHT22;576;48.418;10.074;2023-05-02T06:01:42;23.10;60.00
1175;DHT22;576;48.418;10.074;2023-05-02T06:04:12;23.10;60.00
1175;DHT22;576;48.418;10.074;2023-05-02T06:06:44;23.10;60.00
1175;DHT22;576;48.418;10.074;2023-05-02T06:09:13;23.20;59.90
1175;DHT22;576;48.418;10.074;2023-05-02T06:11:41;23.20;59.90
1175;DHT22;576;48.418;10.074;2023-05-02T06:14:10;23.20;59.90
1175;DHT22;576;48.418;10.074;2023-05-02T06:16:40;23.20;59.80
1175;DHT22;576;48.418;10.074;2023-05-02T06:19:10;23.30;59.80
1175;DHT22;576;48.418;10.074;2023-05-02T06:21:39;23.30;59.70
1175;DHT22;576;48.418;10.074;2023-05-02T06:24:07;23.30;59.60
1175;DHT22;576;48.418;10.074;2023-05-02T06:26:35;23.30;59.60
1175;DHT22;576;48.418;10.074;2023-05-02T06:29:04;23.30;59.50
1175;DHT22;576;48.418;10.074;2023-05-02T06:31:32;23.30;59.50
1175;DHT22;576;48.418;10.074;2023-05-02T06:34:01;23.30;59.50
1175;DHT22;576;48.418;10.074;2023-05-02T06:36:29;23.30;59.50
1175;DHT22;576;48.418;10.074;2023-05-02T06:38:58;23.30;59.50
1175;DHT22;576;48.418;10.074;2023-05-02T06:41:26;23.30;59.40
1175;DHT22;576;48.418;10.074;2023-05-02T06:43:54;23.30;59.40
1175;DHT22;576;48.418;10.074;2023-05-02T06:46:22;23.30;59.40
1175;DHT22;576;48.418;10.074;2023-05-02T06:48:50;23.30;59.40
1175;DHT22;576;48.418;10.074;2023-05-02T06:51:20;23.30;59.50
1175;DHT22;576;48.418;10.074;2023-05-02T06:53:48;23.30;59.50
1175;DHT22;576;48.418;10.074;2023-05-02T06:56:16;23.30;59.50
1175;DHT22;576;48.418;10.074;2023-05-02T06:58:45;23.30;59.50
1175;DHT22;576;48.418;10.074;2023-05-02T07:01:13;23.30;59.40
1175;DHT22;576;48.418;10.074;2023-05-02T07:03:41;23.30;59.40
1175;DHT22;576;48.418;10.074;2023-05-02T07:06:10;23.30;59.40
1175;DHT22;576;48.418;10.074;2023-05-02T07:08:39;23.30;59.40
1175;DHT22;576;48.418;10.074;2023-05-02T07:11:07;23.30;59.40
1175;DHT22;576;48.418;10.074;2023-05-02T07:13:35;23.30;59.40
1175;DHT22;576;48.418;10.074;2023-05-02T07:16:04;23.30;59.40
1175;DHT22;576;48.418;10.074;2023-05-02T07:18:33;23.30;59.40
1175;DHT22;576;48.418;10.074;2023-05-02T07:21:01;23.30;59.40
1175;DHT22;576;48.418;10.074;2023-05-02T07:23:30;23.30;59.40
1175;DHT22;576;48.418;10.074;2023-05-02T07:25:59;23.30;59.40
1175;DHT22;576;48.418;10.074;2023-05-02T07:28:30;23.30;59.40
1175;DHT22;576;48.418;10.074;2023-05-02T07:30:58;23.30;59.40
1175;DHT22;576;48.418;10.074;2023-05-02T07:33:26;23.30;59.40
1175;DHT22;576;48.418;10.074;2023-05-02T07:35:55;23.30;59.40
1175;DHT22;576;48.418;10.074;2023-05-02T07:38:23;23.30;59.40
1175;DHT22;576;48.418;10.074;2023-05-02T07:40:51;23.30;59.40
1175;DHT22;576;48.418;10.074;2023-05-02T07:43:21;23.30;59.40
1175;DHT22;576;48.418;10.074;2023-05-02T07:45:49;23.30;59.40
1175;DHT22;576;48.418;10.074;2023-05-02T07:48:17;23.30;59.40
1175;DHT22;576;48.418;10.074;2023-05-02T07:50:46;23.30;59.40
1175;DHT22;576;48.418;10.074;2023-05-02T07:53:14;23.40;59.40
1175;DHT22;576;48.418;10.074;2023-05-02T07:55:42;23.40;59.30
1175;DHT22;576;48.418;10.074;2023-05-02T07:58:10;23.40;59.30
1175;DHT22;576;48.418;10.074;2023-05-02T08:00:39;23.40;59.30
1175;DHT22;576;48.418;10.074;2023-05-02T08:03:08;23.50;59.20
1175;DHT22;576;48.418;10.074;2023-05-02T08:05:36;23.50;59.20
1175;DHT22;576;48.418;10.074;2023-05-02T08:08:04;23.50;59.20
1175;DHT22;576;48.418;10.074;2023-05-02T08:10:33;23.50;59.10
1175;DHT22;576;48.418;10.074;2023-05-02T08:13:01;23.50;59.10
1175;DHT22;576;48.418;10.074;2023-05-02T08:15:29;23.50;59.10
1175;DHT22;576;48.418;10.074;2023-05-02T08:17:59;23.50;59.00
1175;DHT22;576;48.418;10.074;2023-05-02T08:20:27;23.50;59.00
1175;DHT22;576;48.418;10.074;2023-05-02T08:22:55;23.50;59.00
1175;DHT22;576;48.418;10.074;2023-05-02T08:25:26;23.50;58.90
1175;DHT22;576;48.418;10.074;2023-05-02T08:27:54;23.60;58.90
1175;DHT22;576;48.418;10.074;2023-05-02T08:30:22;23.60;58.90
1175;DHT22;576;48.418;10.074;2023-05-02T08:32:50;23.60;58.90
1175;DHT22;576;48.418;10.074;2023-05-02T08:35:20;23.60;58.90
1175;DHT22;576;48.418;10.074;2023-05-02T08:37:48;23.60;58.90
1175;DHT22;576;48.418;10.074;2023-05-02T08:40:16;23.60;58.90
1175;DHT22;576;48.418;10.074;2023-05-02T08:43:04;23.60;58.80
1175;DHT22;576;48.418;10.074;2023-05-02T08:45:36;23.60;58.80
1175;DHT22;576;48.418;10.074;2023-05-02T08:48:06;23.60;58.80
1175;DHT22;576;48.418;10.074;2023-05-02T08:50:39;23.60;58.80
1175;DHT22;576;48.418;10.074;2023-05-02T08:53:08;23.60;58.80
1175;DHT22;576;48.418;10.074;2023-05-02T08:55:38;23.60;58.80
1175;DHT22;576;48.418;10.074;2023-05-02T08:58:07;23.60;58.70
1175;DHT22;576;48.418;10.074;2023-05-02T09:00:38;23.60;58.70
1175;DHT22;576;48.418;10.074;2023-05-02T09:03:18;23.60;58.70
1175;DHT22;576;48.418;10.074;2023-05-02T09:05:54;23.70;58.70
1175;DHT22;576;48.418;10.074;2023-05-02T09:08:26;23.70;58.70
1175;DHT22;576;48.418;10.074;2023-05-02T09:10:54;23.70;58.70
1175;DHT22;576;48.418;10.074;2023-05-02T09:13:30;23.70;58.70
1175;DHT22;576;48.418;10.074;2023-05-02T09:15:59;23.70;58.70
1175;DHT22;576;48.418;10.074;2023-05-02T09:18:29;23.70;58.60
1175;DHT22;576;48.418;10.074;2023-05-02T09:21:00;23.70;58.60
1175;DHT22;576;48.418;10.074;2023-05-02T09:23:33;23.70;58.60
1175;DHT22;576;48.418;10.074;2023-05-02T09:26:14;23.70;58.60
1175;DHT22;576;48.418;10.074;2023-05-02T09:28:43;23.80;58.60
1175;DHT22;576;48.418;10.074;2023-05-02T09:31:14;23.80;58.60
1175;DHT22;576;48.418;10.074;2023-05-02T09:33:53;23.80;58.70
1175;DHT22;576;48.418;10.074;2023-05-02T09:36:23;23.90;58.90
1175;DHT22;576;48.418;10.074;2023-05-02T09:38:52;23.90;59.20
1175;DHT22;576;48.418;10.074;2023-05-02T09:41:24;24.00;59.40
1175;DHT22;576;48.418;10.074;2023-05-02T09:43:56;24.00;59.60
1175;DHT22;576;48.418;10.074;2023-05-02T09:46:24;24.00;59.70
1175;DHT22;576;48.418;10.074;2023-05-02T09:48:54;24.10;59.80
1175;DHT22;576;48.418;10.074;2023-05-02T09:51:24;24.10;59.80
1175;DHT22;576;48.418;10.074;2023-05-02T09:53:53;24.10;59.80
1175;DHT22;576;48.418;10.074;2023-05-02T09:56:22;24.20;59.70
1175;DHT22;576;48.418;10.074;2023-05-02T09:59:11;24.20;59.80
1175;DHT22;576;48.418;10.074;2023-05-02T10:01:40;24.20;59.90
1175;DHT22;576;48.418;10.074;2023-05-02T10:04:11;24.20;59.90
1175;DHT22;576;48.418;10.074;2023-05-02T10:06:44;24.30;59.90
1175;DHT22;576;48.418;10.074;2023-05-02T10:09:14;24.30;60.00
1175;DHT22;576;48.418;10.074;2023-05-02T10:11:50;24.40;59.90
1175;DHT22;576;48.418;10.074;2023-05-02T10:14:20;24.40;60.00
1175;DHT22;576;48.418;10.074;2023-05-02T10:16:54;24.40;60.00
1175;DHT22;576;48.418;10.074;2023-05-02T10:19:29;24.40;60.00
1175;DHT22;576;48.418;10.074;2023-05-02T10:22:02;24.40;60.00
1175;DHT22;576;48.418;10.074;2023-05-02T10:24:31;24.50;60.00
1175;DHT22;576;48.418;10.074;2023-05-02T10:27:01;24.50;59.90
1175;DHT22;576;48.418;10.074;2023-05-02T10:29:31;24.50;59.90
1175;DHT22;576;48.418;10.074;2023-05-02T10:32:02;24.50;59.80
1175;DHT22;576;48.418;10.074;2023-05-02T10:34:31;24.50;59.90
1175;DHT22;576;48.418;10.074;2023-05-02T10:37:01;24.50;59.80
1175;DHT22;576;48.418;10.074;2023-05-02T10:39:31;24.50;59.90
1175;DHT22;576;48.418;10.074;2023-05-02T10:42:01;24.50;59.90
1175;DHT22;576;48.418;10.074;2023-05-02T10:44:34;24.50;59.80
1175;DHT22;576;48.418;10.074;2023-05-02T10:47:17;24.60;59.80
1175;DHT22;576;48.418;10.074;2023-05-02T10:49:49;24.60;59.80
1175;DHT22;576;48.418;10.074;2023-05-02T10:52:28;24.60;59.70
1175;DHT22;576;48.418;10.074;2023-05-02T10:55:19;24.60;59.70
1175;DHT22;576;48.418;10.074;2023-05-02T10:58:18;24.70;59.70
1175;DHT22;576;48.418;10.074;2023-05-02T11:00:48;24.70;59.70
1175;DHT22;576;48.418;10.074;2023-05-02T11:06:18;24.70;59.70
1175;DHT22;576;48.418;10.074;2023-05-02T11:08:47;24.70;59.70
1175;DHT22;576;48.418;10.074;2023-05-02T11:11:38;24.70;59.50
1175;DHT22;576;48.418;10.074;2023-05-02T11:14:07;24.80;59.30
1175;DHT22;576;48.418;10.074;2023-05-02T11:17:09;24.80;59.10
1175;DHT22;576;48.418;10.074;2023-05-02T11:22:55;24.80;58.90
1175;DHT22;576;48.418;10.074;2023-05-02T11:25:50;24.90;58.80
1175;DHT22;576;48.418;10.074;2023-05-02T11:28:43;24.90;58.70
1175;DHT22;576;48.418;10.074;2023-05-02T11:34:41;24.90;58.50
1175;DHT22;576;48.418;10.074;2023-05-02T11:37:12;24.90;58.50
1175;DHT22;576;48.418;10.074;2023-05-02T11:39:41;24.80;58.50
1175;DHT22;576;48.418;10.074;2023-05-02T11:42:26;24.80;58.50
1175;DHT22;576;48.418;10.074;2023-05-02T11:44:56;24.80;58.50
1175;DHT22;576;48.418;10.074;2023-05-02T11:47:25;24.80;58.50
1175;DHT22;576;48.418;10.074;2023-05-02T11:49:55;24.90;58.60
1175;DHT22;576;48.418;10.074;2023-05-02T11:52:25;25.00;58.20
1175;DHT22;576;48.418;10.074;2023-05-02T11:54:54;25.00;57.80
1175;DHT22;576;48.418;10.074;2023-05-02T11:57:24;25.00;57.80
1175;DHT22;576;48.418;10.074;2023-05-02T11:59:53;25.00;57.80
1175;DHT22;576;48.418;10.074;2023-05-02T12:02:34;24.90;58.00
1175;DHT22;576;48.418;10.074;2023-05-02T12:05:04;24.90;58.10
1175;DHT22;576;48.418;10.074;2023-05-02T12:07:36;24.80;58.20
1175;DHT22;576;48.418;10.074;2023-05-02T12:10:05;24.80;58.30
1175;DHT22;576;48.418;10.074;2023-05-02T12:12:39;24.70;58.30
1175;DHT22;576;48.418;10.074;2023-05-02T12:15:09;24.60;58.40
1175;DHT22;576;48.418;10.074;2023-05-02T12:17:41;24.60;58.50
1175;DHT22;576;48.418;10.074;2023-05-02T12:20:10;24.60;58.60
1175;DHT22;576;48.418;10.074;2023-05-02T12:22:39;24.50;58.60
1175;DHT22;576;48.418;10.074;2023-05-02T12:25:08;24.50;58.70
1175;DHT22;576;48.418;10.074;2023-05-02T12:27:37;24.50;58.70
1175;DHT22;576;48.418;10.074;2023-05-02T12:30:06;24.50;58.70
1175;DHT22;576;48.418;10.074;2023-05-02T12:32:35;24.50;58.70
1175;DHT22;576;48.418;10.074;2023-05-02T12:35:04;24.50;58.70
1175;DHT22;576;48.418;10.074;2023-05-02T12:37:32;24.50;58.60
1175;DHT22;576;48.418;10.074;2023-05-02T12:40:01;24.50;58.60
1175;DHT22;576;48.418;10.074;2023-05-02T12:42:30;24.50;58.80
1175;DHT22;576;48.418;10.074;2023-05-02T12:45:01;24.60;58.90
1175;DHT22;576;48.418;10.074;2023-05-02T12:47:43;24.70;58.60
1175;DHT22;576;48.418;10.074;2023-05-02T12:50:11;24.90;58.30
1175;DHT22;576;48.418;10.074;2023-05-02T12:52:47;25.00;57.80
1175;DHT22;576;48.418;10.074;2023-05-02T12:55:16;25.00;57.70
1175;DHT22;576;48.418;10.074;2023-05-02T12:57:44;25.00;57.60
1175;DHT22;576;48.418;10.074;2023-05-02T13:00:15;25.10;57.70
1175;DHT22;576;48.418;10.074;2023-05-02T13:02:44;25.20;57.50
1175;DHT22;576;48.418;10.074;2023-05-02T13:05:15;25.30;57.30
1175;DHT22;576;48.418;10.074;2023-05-02T13:07:43;25.40;57.00
1175;DHT22;576;48.418;10.074;2023-05-02T13:10:12;25.50;56.90
1175;DHT22;576;48.418;10.074;2023-05-02T13:12:43;25.60;56.70
1175;DHT22;576;48.418;10.074;2023-05-02T13:15:14;25.60;56.60
1175;DHT22;576;48.418;10.074;2023-05-02T13:17:42;25.70;56.60
1175;DHT22;576;48.418;10.074;2023-05-02T13:20:11;25.70;56.50
1175;DHT22;576;48.418;10.074;2023-05-02T13:22:40;25.70;56.60
1175;DHT22;576;48.418;10.074;2023-05-02T13:25:08;25.70;56.70
1175;DHT22;576;48.418;10.074;2023-05-02T13:27:36;25.80;56.80
1175;DHT22;576;48.418;10.074;2023-05-02T13:30:07;25.80;56.80
1175;DHT22;576;48.418;10.074;2023-05-02T13:32:38;25.90;56.90
1175;DHT22;576;48.418;10.074;2023-05-02T13:35:08;25.90;56.80
1175;DHT22;576;48.418;10.074;2023-05-02T13:37:39;26.00;56.80
1175;DHT22;576;48.418;10.074;2023-05-02T13:40:08;26.00;56.80
1175;DHT22;576;48.418;10.074;2023-05-02T13:42:37;26.00;56.70
1175;DHT22;576;48.418;10.074;2023-05-02T13:45:06;25.90;56.70
1175;DHT22;576;48.418;10.074;2023-05-02T13:47:35;25.90;56.90
1175;DHT22;576;48.418;10.074;2023-05-02T13:50:08;25.80;57.10
1175;DHT22;576;48.418;10.074;2023-05-02T13:52:36;25.70;57.60
1175;DHT22;576;48.418;10.074;2023-05-02T13:55:05;25.60;57.80
1175;DHT22;576;48.418;10.074;2023-05-02T13:57:33;25.50;57.90
1175;DHT22;576;48.418;10.074;2023-05-02T14:00:02;25.50;58.10
1175;DHT22;576;48.418;10.074;2023-05-02T14:02:31;25.50;58.20
1175;DHT22;576;48.418;10.074;2023-05-02T14:04:59;25.40;58.40
1175;DHT22;576;48.418;10.074;2023-05-02T14:07:29;25.40;58.40
1175;DHT22;576;48.418;10.074;2023-05-02T14:09:57;25.30;58.50
1175;DHT22;576;48.418;10.074;2023-05-02T14:12:26;25.30;58.60
1175;DHT22;576;48.418;10.074;2023-05-02T14:14:54;25.30;58.80
1175;DHT22;576;48.418;10.074;2023-05-02T14:17:22;25.20;58.90
1175;DHT22;576;48.418;10.074;2023-05-02T14:19:51;25.20;59.00
1175;DHT22;576;48.418;10.074;2023-05-02T14:22:19;25.20;59.10
1175;DHT22;576;48.418;10.074;2023-05-02T14:24:49;25.20;59.10
1175;DHT22;576;48.418;10.074;2023-05-02T14:27:17;25.20;59.10
1175;DHT22;576;48.418;10.074;2023-05-02T14:29:45;25.20;59.10
1175;DHT22;576;48.418;10.074;2023-05-02T14:32:13;25.20;59.10
1175;DHT22;576;48.418;10.074;2023-05-02T14:34:42;25.20;59.20
1175;DHT22;576;48.418;10.074;2023-05-02T14:37:10;25.30;59.10
1175;DHT22;576;48.418;10.074;2023-05-02T14:39:38;25.30;59.10
1175;DHT22;576;48.418;10.074;2023-05-02T14:42:09;25.40;59.00
1175;DHT22;576;48.418;10.074;2023-05-02T14:44:37;25.50;58.90
1175;DHT22;576;48.418;10.074;2023-05-02T14:47:06;25.50;58.80
1175;DHT22;576;48.418;10.074;2023-05-02T14:49:34;25.60;58.80
1175;DHT22;576;48.418;10.074;2023-05-02T14:52:03;25.70;58.80
1175;DHT22;576;48.418;10.074;2023-05-02T14:54:31;25.70;58.70
1175;DHT22;576;48.418;10.074;2023-05-02T14:57:00;25.70;58.80
1175;DHT22;576;48.418;10.074;2023-05-02T14:59:30;25.70;58.80
1175;DHT22;576;48.418;10.074;2023-05-02T15:01:59;25.70;58.80
1175;DHT22;576;48.418;10.074;2023-05-02T15:04:27;25.70;59.00
1175;DHT22;576;48.418;10.074;2023-05-02T15:06:56;25.70;59.00
1175;DHT22;576;48.418;10.074;2023-05-02T15:09:24;25.70;59.00
1175;DHT22;576;48.418;10.074;2023-05-02T15:11:53;25.80;59.10
1175;DHT22;576;48.418;10.074;2023-05-02T15:14:21;25.80;59.20
1175;DHT22;576;48.418;10.074;2023-05-02T15:16:50;25.80;59.30
1175;DHT22;576;48.418;10.074;2023-05-02T15:19:19;25.80;59.40
1175;DHT22;576;48.418;10.074;2023-05-02T15:21:48;25.80;59.20
1175;DHT22;576;48.418;10.074;2023-05-02T15:24:19;25.80;59.00
1175;DHT22;576;48.418;10.074;2023-05-02T15:26:47;25.80;58.80
1175;DHT22;576;48.418;10.074;2023-05-02T15:29:15;25.90;58.70
1175;DHT22;576;48.418;10.074;2023-05-02T15:31:43;25.90;58.50
1175;DHT22;576;48.418;10.074;2023-05-02T15:34:13;25.90;58.40
1175;DHT22;576;48.418;10.074;2023-05-02T15:36:41;25.90;58.30
1175;DHT22;576;48.418;10.074;2023-05-02T15:39:09;26.00;58.20
1175;DHT22;576;48.418;10.074;2023-05-02T15:41:38;26.00;58.10
1175;DHT22;576;48.418;10.074;2023-05-02T15:44:06;26.00;58.00
1175;DHT22;576;48.418;10.074;2023-05-02T15:46:34;26.00;58.00
1175;DHT22;576;48.418;10.074;2023-05-02T15:49:02;26.00;57.90
1175;DHT22;576;48.418;10.074;2023-05-02T15:51:32;26.00;57.90
1175;DHT22;576;48.418;10.074;2023-05-02T15:54:00;26.00;57.80
1175;DHT22;576;48.418;10.074;2023-05-02T15:56:29;26.00;57.80
1175;DHT22;576;48.418;10.074;2023-05-02T15:58:58;26.00;57.70
1175;DHT22;576;48.418;10.074;2023-05-02T16:01:26;26.00;57.70
1175;DHT22;576;48.418;10.074;2023-05-02T16:03:54;26.00;57.70
1175;DHT22;576;48.418;10.074;2023-05-02T16:06:22;26.00;57.60
1175;DHT22;576;48.418;10.074;2023-05-02T16:08:52;26.00;57.60
1175;DHT22;576;48.418;10.074;2023-05-02T16:11:20;26.00;57.60
1175;DHT22;576;48.418;10.074;2023-05-02T16:13:48;26.00;57.60
1175;DHT22;576;48.418;10.074;2023-05-02T16:16:16;26.00;57.60
1175;DHT22;576;48.418;10.074;2023-05-02T16:18:45;26.00;57.50
1175;DHT22;576;48.418;10.074;2023-05-02T16:21:13;26.00;57.50
1175;DHT22;576;48.418;10.074;2023-05-02T16:23:42;26.00;57.50
1175;DHT22;576;48.418;10.074;2023-05-02T16:26:12;26.00;57.50
1175;DHT22;576;48.418;10.074;2023-05-02T16:28:40;26.00;57.50
1175;DHT22;576;48.418;10.074;2023-05-02T16:31:08;26.00;57.50
1175;DHT22;576;48.418;10.074;2023-05-02T16:33:37;26.00;57.50
1175;DHT22;576;48.418;10.074;2023-05-02T16:36:06;26.00;57.50
1175;DHT22;576;48.418;10.074;2023-05-02T16:38:34;25.90;57.50